»·PEaware :: N5826T KBUR-KLAS

N5826T :: KBUR-KLAS

FLIGHT INFORMATION

Flight Status: Arrived
Operator: Privately registered:
United States
More flights under this callsign
Pilot: Daniel J. (32090)
Aircraft: ECLIPSE 500
(EA50)
More flights by this aircraft type
Origin: KBUR Bob Hope-Burbank
United States
Destination: KLAS McCarran Intl
United States
More flights between these airports :: More routes between these airports
Route: SLAPP2 MISEN KEPEC6
File this flight plan on PilotEdge
Remarks:
Altitude:
(Current/Filed)
35,000ft
Speed:
(Current/Filed)
340kts
Departed: 17-Nov-20 05:06 PM
Arrived: 17-Nov-20 05:59 PM
Distance/Time
Traveled:
193nm/0:53
Distance/Time
To Go:
Arrived

Flight Plot

Page will automatically refresh every two minutes.

Flight plan parsing failed; only flown route is shown


Map Options




Map Legend


Flown Route
Filed Route
Departure Airport
Arrival Airport
Navaid (VOR, NDB)
Fix

Horizontal Profiles

Position Reports

Time Latitude Longitude Heading Altitude Ground
Speed
17-Nov-20 16:40 34.200208 -118.358847 280 724ft 0kts
17-Nov-20 16:41 34.200208 -118.358847 280 724ft 0kts
17-Nov-20 16:42 34.200208 -118.358847 280 724ft 0kts
17-Nov-20 16:43 34.200208 -118.358847 280 724ft 0kts
17-Nov-20 16:44 34.200208 -118.358847 280 724ft 0kts
17-Nov-20 16:45 34.200208 -118.358847 280 724ft 0kts
17-Nov-20 16:46 34.200208 -118.358847 280 724ft 0kts
17-Nov-20 16:47 34.200208 -118.358847 280 724ft 0kts
17-Nov-20 16:48 34.200208 -118.358847 280 724ft 0kts
17-Nov-20 16:49 34.200208 -118.358847 280 724ft 0kts
17-Nov-20 16:50 34.200208 -118.358847 280 724ft 0kts
17-Nov-20 16:51 34.200208 -118.358847 280 724ft 0kts
17-Nov-20 16:52 34.200208 -118.358847 280 724ft 0kts
17-Nov-20 16:53 34.200208 -118.358847 280 724ft 0kts
17-Nov-20 16:54 34.200208 -118.358847 280 724ft 0kts
17-Nov-20 16:55 34.200208 -118.358847 280 724ft 0kts
17-Nov-20 16:56 34.200208 -118.358847 280 724ft 0kts
17-Nov-20 16:57 34.200208 -118.358847 280 724ft 0kts
17-Nov-20 16:58 34.199758 -118.358866 135 722ft 9kts
17-Nov-20 16:59 34.201528 -118.358629 347 731ft 15kts
17-Nov-20 17:00 34.206268 -118.359938 346 753ft 16kts
17-Nov-20 17:01 34.210617 -118.361142 346 773ft 16kts
17-Nov-20 17:02 34.211845 -118.361344 50 777ft 0kts
17-Nov-20 17:03 34.211845 -118.361344 50 777ft 0kts
17-Nov-20 17:04 34.212107 -118.360862 71 778ft 18kts
17-Nov-20 17:05 34.187375 -118.355525 196 1274ft 160kts
17-Nov-20 17:06 34.154441 -118.390546 222 3919ft 160kts
17-Nov-20 17:07 34.140782 -118.438602 320 4801ft 192kts
17-Nov-20 17:08 34.192835 -118.456333 344 5880ft 197kts
17-Nov-20 17:09 34.240926 -118.424681 30 7391ft 208kts
17-Nov-20 17:10 34.294790 -118.395434 20 9309ft 217kts
17-Nov-20 17:11 34.353091 -118.371734 16 11157ft 226kts
17-Nov-20 17:12 34.414133 -118.349414 14 12968ft 233kts
17-Nov-20 17:13 34.475072 -118.321669 41 14667ft 240kts
17-Nov-20 17:14 34.526799 -118.269114 40 16235ft 247kts
17-Nov-20 17:15 34.580376 -118.215229 39 17708ft 253kts
17-Nov-20 17:16 34.635142 -118.160232 38 19085ft 259kts
17-Nov-20 17:17 34.671993 -118.089931 83 20335ft 258kts
17-Nov-20 17:18 34.686446 -118.003044 82 21520ft 265kts
17-Nov-20 17:19 34.695440 -117.913956 91 22630ft 268kts
17-Nov-20 17:20 34.700707 -117.822892 90 23743ft 274kts
17-Nov-20 17:21 34.705647 -117.729627 91 24877ft 278kts
17-Nov-20 17:22 34.709347 -117.635121 90 25956ft 283kts
17-Nov-20 17:23 34.713070 -117.538360 90 26970ft 289kts
17-Nov-20 17:24 34.731585 -117.442681 71 27902ft 297kts
17-Nov-20 17:25 34.757262 -117.346535 72 28802ft 301kts
17-Nov-20 17:26 34.783152 -117.248946 71 29577ft 306kts
17-Nov-20 17:27 34.809274 -117.150088 71 30057ft 309kts
17-Nov-20 17:28 34.835374 -117.050659 70 30633ft 306kts
17-Nov-20 17:29 34.861303 -116.951830 70 30721ft 313kts
17-Nov-20 17:30 34.888908 -116.846345 70 29180ft 345kts
17-Nov-20 17:31 34.920272 -116.728297 63 27516ft 383kts
17-Nov-20 17:32 34.981158 -116.619137 53 25947ft 396kts
17-Nov-20 17:33 35.043622 -116.508452 54 24388ft 396kts
17-Nov-20 17:34 35.104448 -116.401233 47 24070ft 373kts
17-Nov-20 17:35 35.175154 -116.312690 43 24064ft 357kts
17-Nov-20 17:36 35.244056 -116.226335 43 24061ft 356kts
17-Nov-20 17:37 35.314041 -116.138340 43 24007ft 368kts
17-Nov-20 17:38 35.386108 -116.047493 44 22096ft 370kts
17-Nov-20 17:39 35.454908 -115.960488 44 20088ft 344kts
17-Nov-20 17:40 35.519739 -115.878316 44 18081ft 328kts
17-Nov-20 17:41 35.582618 -115.798424 45 15894ft 324kts
17-Nov-20 17:42 35.644477 -115.719634 45 13715ft 320kts
17-Nov-20 17:43 35.704553 -115.642904 45 13032ft 313kts
17-Nov-20 17:44 35.771806 -115.574284 3 13027ft 319kts
17-Nov-20 17:45 35.860723 -115.569578 357 13030ft 323kts
17-Nov-20 17:46 35.950166 -115.564151 5 13006ft 315kts
17-Nov-20 17:47 35.997984 -115.481580 71 12375ft 309kts
17-Nov-20 17:48 36.028488 -115.383143 73 11040ft 301kts
17-Nov-20 17:49 36.024282 -115.281168 98 10406ft 292kts
17-Nov-20 17:50 36.015986 -115.186815 98 9394ft 263kts
17-Nov-20 17:51 36.032060 -115.112350 22 8404ft 244kts
17-Nov-20 17:52 36.089031 -115.090155 21 7209ft 200kts
17-Nov-20 17:53 36.140882 -115.070272 21 6010ft 185kts
17-Nov-20 17:54 36.190597 -115.062628 321 5241ft 197kts
17-Nov-20 17:55 36.184488 -115.112468 198 4435ft 178kts
17-Nov-20 17:56 36.145276 -115.130102 204 3185ft 130kts
17-Nov-20 17:57 36.112503 -115.149199 204 2415ft 122kts
17-Nov-20 17:58 36.087591 -115.163352 205 2130ft 34kts
17-Nov-20 17:59 36.083732 -115.166763 234 2151ft 0kts
17-Nov-20 18:01 36.083689 -115.166827 228 2152ft 5kts
17-Nov-20 18:02 36.081522 -115.169436 258 2164ft 10kts
17-Nov-20 18:03 36.080950 -115.170732 86 2168ft 0kts
17-Nov-20 18:04 36.080950 -115.170732 86 2168ft 0kts
17-Nov-20 18:05 36.080950 -115.170732 86 2168ft 0kts

Navigation Log

Ident Type
Flight plan parsing failed, navigation log unavailable